sensor_id;sensor_type;location;lat;lon;timestamp;P1;durP1;ratioP1;P2;durP2;ratioP2
58518;SDS011;44310;48.106;12.008;2022-12-18T00:03:51;19.33;;;9.00;;
58518;SDS011;44310;48.106;12.008;2022-12-18T00:06:20;19.27;;;9.50;;
58518;SDS011;44310;48.106;12.008;2022-12-18T00:08:48;34.03;;;10.93;;
58518;SDS011;44310;48.106;12.008;2022-12-18T00:11:16;24.90;;;10.52;;
58518;SDS011;44310;48.106;12.008;2022-12-18T00:13:45;27.63;;;11.18;;
58518;SDS011;44310;48.106;12.008;2022-12-18T00:16:17;21.08;;;9.85;;
58518;SDS011;44310;48.106;12.008;2022-12-18T00:18:47;14.50;;;11.40;;
58518;SDS011;44310;48.106;12.008;2022-12-18T00:21:16;21.13;;;12.47;;
58518;SDS011;44310;48.106;12.008;2022-12-18T00:23:44;16.35;;;11.18;;
58518;SDS011;44310;48.106;12.008;2022-12-18T00:26:13;17.52;;;10.95;;
58518;SDS011;44310;48.106;12.008;2022-12-18T00:28:42;9.27;;;7.68;;
58518;SDS011;44310;48.106;12.008;2022-12-18T00:31:11;9.75;;;7.90;;
58518;SDS011;44310;48.106;12.008;2022-12-18T00:33:40;12.65;;;9.00;;
58518;SDS011;44310;48.106;12.008;2022-12-18T00:36:15;12.13;;;9.60;;
58518;SDS011;44310;48.106;12.008;2022-12-18T00:38:44;24.48;;;10.43;;
58518;SDS011;44310;48.106;12.008;2022-12-18T00:41:13;19.65;;;10.48;;
58518;SDS011;44310;48.106;12.008;2022-12-18T00:44:01;17.70;;;9.82;;
58518;SDS011;44310;48.106;12.008;2022-12-18T00:46:29;32.97;;;10.18;;
58518;SDS011;44310;48.106;12.008;2022-12-18T00:48:56;20.00;;;9.52;;
58518;SDS011;44310;48.106;12.008;2022-12-18T00:51:25;16.67;;;8.90;;
58518;SDS011;44310;48.106;12.008;2022-12-18T00:53:53;19.07;;;9.97;;
58518;SDS011;44310;48.106;12.008;2022-12-18T00:56:20;21.95;;;9.88;;
58518;SDS011;44310;48.106;12.008;2022-12-18T00:58:47;28.38;;;11.43;;
58518;SDS011;44310;48.106;12.008;2022-12-18T01:01:15;18.27;;;9.77;;
58518;SDS011;44310;48.106;12.008;2022-12-18T01:03:43;18.95;;;9.60;;
58518;SDS011;44310;48.106;12.008;2022-12-18T01:06:12;20.90;;;9.55;;
58518;SDS011;44310;48.106;12.008;2022-12-18T01:08:40;17.70;;;9.23;;
58518;SDS011;44310;48.106;12.008;2022-12-18T01:11:11;14.67;;;8.87;;
58518;SDS011;44310;48.106;12.008;2022-12-18T01:13:40;15.52;;;8.32;;
58518;SDS011;44310;48.106;12.008;2022-12-18T01:16:08;14.30;;;8.63;;
58518;SDS011;44310;48.106;12.008;2022-12-18T01:18:37;16.40;;;8.57;;
58518;SDS011;44310;48.106;12.008;2022-12-18T01:21:05;13.97;;;8.13;;
58518;SDS011;44310;48.106;12.008;2022-12-18T01:23:36;17.38;;;8.40;;
58518;SDS011;44310;48.106;12.008;2022-12-18T01:26:08;13.82;;;8.07;;
58518;SDS011;44310;48.106;12.008;2022-12-18T01:28:37;18.75;;;8.70;;
58518;SDS011;44310;48.106;12.008;2022-12-18T01:31:25;17.50;;;8.68;;
58518;SDS011;44310;48.106;12.008;2022-12-18T01:33:54;11.00;;;7.50;;
58518;SDS011;44310;48.106;12.008;2022-12-18T01:36:23;15.77;;;8.13;;
58518;SDS011;44310;48.106;12.008;2022-12-18T01:39:01;12.52;;;8.18;;
58518;SDS011;44310;48.106;12.008;2022-12-18T01:41:31;24.50;;;9.70;;
58518;SDS011;44310;48.106;12.008;2022-12-18T01:47:20;13.40;;;7.00;;
58518;SDS011;44310;48.106;12.008;2022-12-18T01:49:54;11.13;;;7.43;;
58518;SDS011;44310;48.106;12.008;2022-12-18T01:52:23;11.20;;;7.63;;
58518;SDS011;44310;48.106;12.008;2022-12-18T01:54:52;13.27;;;7.85;;
58518;SDS011;44310;48.106;12.008;2022-12-18T01:57:21;9.35;;;7.05;;
58518;SDS011;44310;48.106;12.008;2022-12-18T01:59:50;21.02;;;8.80;;
58518;SDS011;44310;48.106;12.008;2022-12-18T02:02:20;18.75;;;8.32;;
58518;SDS011;44310;48.106;12.008;2022-12-18T02:04:48;17.98;;;8.52;;
58518;SDS011;44310;48.106;12.008;2022-12-18T02:07:24;12.93;;;7.93;;
58518;SDS011;44310;48.106;12.008;2022-12-18T02:10:24;16.25;;;8.38;;
58518;SDS011;44310;48.106;12.008;2022-12-18T02:15:44;16.52;;;7.45;;
58518;SDS011;44310;48.106;12.008;2022-12-18T02:18:31;15.70;;;7.97;;
58518;SDS011;44310;48.106;12.008;2022-12-18T02:21:08;17.98;;;8.00;;
58518;SDS011;44310;48.106;12.008;2022-12-18T02:26:59;16.10;;;7.40;;
58518;SDS011;44310;48.106;12.008;2022-12-18T02:29:37;11.00;;;7.10;;
58518;SDS011;44310;48.106;12.008;2022-12-18T02:32:11;12.70;;;7.03;;
58518;SDS011;44310;48.106;12.008;2022-12-18T02:34:43;9.68;;;6.50;;
58518;SDS011;44310;48.106;12.008;2022-12-18T02:37:13;13.97;;;7.27;;
58518;SDS011;44310;48.106;12.008;2022-12-18T02:39:44;11.88;;;7.13;;
58518;SDS011;44310;48.106;12.008;2022-12-18T02:42:14;9.73;;;6.40;;
58518;SDS011;44310;48.106;12.008;2022-12-18T02:44:47;8.65;;;6.40;;
58518;SDS011;44310;48.106;12.008;2022-12-18T02:47:17;8.45;;;6.65;;
58518;SDS011;44310;48.106;12.008;2022-12-18T02:57:54;7.85;;;6.15;;
58518;SDS011;44310;48.106;12.008;2022-12-18T03:00:37;10.73;;;6.03;;
58518;SDS011;44310;48.106;12.008;2022-12-18T03:03:11;10.00;;;6.50;;
58518;SDS011;44310;48.106;12.008;2022-12-18T03:08:14;6.55;;;5.65;;
58518;SDS011;44310;48.106;12.008;2022-12-18T03:10:48;8.03;;;5.93;;
58518;SDS011;44310;48.106;12.008;2022-12-18T03:13:30;9.68;;;6.20;;
58518;SDS011;44310;48.106;12.008;2022-12-18T03:15:58;7.78;;;5.80;;
58518;SDS011;44310;48.106;12.008;2022-12-18T03:18:30;10.65;;;5.75;;
58518;SDS011;44310;48.106;12.008;2022-12-18T03:21:04;8.20;;;5.70;;
58518;SDS011;44310;48.106;12.008;2022-12-18T03:23:40;9.25;;;6.25;;
58518;SDS011;44310;48.106;12.008;2022-12-18T03:26:12;6.80;;;5.70;;
58518;SDS011;44310;48.106;12.008;2022-12-18T03:28:45;7.93;;;6.17;;
58518;SDS011;44310;48.106;12.008;2022-12-18T03:31:16;9.48;;;5.85;;
58518;SDS011;44310;48.106;12.008;2022-12-18T03:33:47;11.83;;;6.80;;
58518;SDS011;44310;48.106;12.008;2022-12-18T03:36:22;11.68;;;5.80;;
58518;SDS011;44310;48.106;12.008;2022-12-18T03:38:50;13.95;;;6.70;;
58518;SDS011;44310;48.106;12.008;2022-12-18T03:41:19;12.00;;;7.17;;
58518;SDS011;44310;48.106;12.008;2022-12-18T03:46:43;17.50;;;7.63;;
58518;SDS011;44310;48.106;12.008;2022-12-18T03:49:25;14.25;;;7.47;;
58518;SDS011;44310;48.106;12.008;2022-12-18T03:52:04;15.83;;;7.33;;
58518;SDS011;44310;48.106;12.008;2022-12-18T03:54:43;15.90;;;7.50;;
58518;SDS011;44310;48.106;12.008;2022-12-18T03:57:19;11.90;;;6.53;;
58518;SDS011;44310;48.106;12.008;2022-12-18T03:59:54;12.18;;;5.93;;
58518;SDS011;44310;48.106;12.008;2022-12-18T04:02:23;9.07;;;6.50;;
58518;SDS011;44310;48.106;12.008;2022-12-18T04:04:52;10.05;;;6.25;;
58518;SDS011;44310;48.106;12.008;2022-12-18T04:07:23;11.32;;;6.50;;
58518;SDS011;44310;48.106;12.008;2022-12-18T04:09:51;11.47;;;6.17;;
58518;SDS011;44310;48.106;12.008;2022-12-18T04:12:26;17.77;;;6.93;;
58518;SDS011;44310;48.106;12.008;2022-12-18T04:14:55;10.35;;;6.45;;
58518;SDS011;44310;48.106;12.008;2022-12-18T04:17:22;9.13;;;5.80;;
58518;SDS011;44310;48.106;12.008;2022-12-18T04:19:50;7.33;;;5.53;;
58518;SDS011;44310;48.106;12.008;2022-12-18T04:22:17;9.63;;;5.20;;
58518;SDS011;44310;48.106;12.008;2022-12-18T04:24:44;7.65;;;5.45;;
58518;SDS011;44310;48.106;12.008;2022-12-18T04:27:11;9.13;;;5.72;;
58518;SDS011;44310;48.106;12.008;2022-12-18T04:29:39;8.70;;;5.50;;
58518;SDS011;44310;48.106;12.008;2022-12-18T04:32:06;7.85;;;5.50;;
58518;SDS011;44310;48.106;12.008;2022-12-18T04:34:34;8.18;;;5.07;;
58518;SDS011;44310;48.106;12.008;2022-12-18T04:37:01;8.52;;;5.43;;
58518;SDS011;44310;48.106;12.008;2022-12-18T04:39:28;6.77;;;5.30;;
58518;SDS011;44310;48.106;12.008;2022-12-18T04:41:55;7.43;;;5.30;;
58518;SDS011;44310;48.106;12.008;2022-12-18T04:44:22;8.55;;;5.25;;
58518;SDS011;44310;48.106;12.008;2022-12-18T04:46:49;7.57;;;5.30;;
58518;SDS011;44310;48.106;12.008;2022-12-18T04:49:16;5.47;;;4.97;;
58518;SDS011;44310;48.106;12.008;2022-12-18T04:51:44;6.00;;;5.03;;
58518;SDS011;44310;48.106;12.008;2022-12-18T04:54:11;16.52;;;6.75;;
58518;SDS011;44310;48.106;12.008;2022-12-18T04:56:38;6.95;;;5.40;;
58518;SDS011;44310;48.106;12.008;2022-12-18T04:59:05;7.72;;;5.60;;
58518;SDS011;44310;48.106;12.008;2022-12-18T05:01:34;7.28;;;5.13;;
58518;SDS011;44310;48.106;12.008;2022-12-18T05:04:01;5.50;;;5.00;;
58518;SDS011;44310;48.106;12.008;2022-12-18T05:06:29;8.52;;;5.20;;
58518;SDS011;44310;48.106;12.008;2022-12-18T05:08:56;7.95;;;5.13;;
58518;SDS011;44310;48.106;12.008;2022-12-18T05:11:23;5.30;;;4.68;;
58518;SDS011;44310;48.106;12.008;2022-12-18T05:13:50;5.20;;;4.68;;
58518;SDS011;44310;48.106;12.008;2022-12-18T05:16:18;5.43;;;4.90;;
58518;SDS011;44310;48.106;12.008;2022-12-18T05:18:45;14.93;;;6.90;;
58518;SDS011;44310;48.106;12.008;2022-12-18T05:21:12;7.95;;;5.15;;
58518;SDS011;44310;48.106;12.008;2022-12-18T05:23:39;7.40;;;4.85;;
58518;SDS011;44310;48.106;12.008;2022-12-18T05:26:07;7.75;;;5.20;;
58518;SDS011;44310;48.106;12.008;2022-12-18T05:28:35;7.30;;;4.72;;
58518;SDS011;44310;48.106;12.008;2022-12-18T05:31:03;7.07;;;4.80;;
58518;SDS011;44310;48.106;12.008;2022-12-18T05:33:32;10.32;;;5.28;;
58518;SDS011;44310;48.106;12.008;2022-12-18T05:36:01;11.52;;;5.88;;
58518;SDS011;44310;48.106;12.008;2022-12-18T05:38:29;8.73;;;5.25;;
58518;SDS011;44310;48.106;12.008;2022-12-18T05:40:58;9.33;;;5.30;;
58518;SDS011;44310;48.106;12.008;2022-12-18T05:43:25;12.57;;;5.20;;
58518;SDS011;44310;48.106;12.008;2022-12-18T05:45:53;23.25;;;7.05;;
58518;SDS011;44310;48.106;12.008;2022-12-18T05:48:21;16.97;;;6.47;;
58518;SDS011;44310;48.106;12.008;2022-12-18T05:50:49;15.73;;;6.30;;
58518;SDS011;44310;48.106;12.008;2022-12-18T05:53:17;13.90;;;6.13;;
58518;SDS011;44310;48.106;12.008;2022-12-18T05:55:45;11.57;;;5.55;;
58518;SDS011;44310;48.106;12.008;2022-12-18T05:58:13;17.13;;;6.90;;
58518;SDS011;44310;48.106;12.008;2022-12-18T06:00:41;14.18;;;5.50;;
58518;SDS011;44310;48.106;12.008;2022-12-18T06:03:11;11.80;;;5.07;;
58518;SDS011;44310;48.106;12.008;2022-12-18T06:05:39;11.90;;;5.50;;
58518;SDS011;44310;48.106;12.008;2022-12-18T06:08:11;8.67;;;5.07;;
58518;SDS011;44310;48.106;12.008;2022-12-18T06:10:40;10.50;;;5.45;;
58518;SDS011;44310;48.106;12.008;2022-12-18T06:13:07;7.30;;;5.00;;
58518;SDS011;44310;48.106;12.008;2022-12-18T06:15:37;8.35;;;5.15;;
58518;SDS011;44310;48.106;12.008;2022-12-18T06:18:05;7.82;;;4.60;;
58518;SDS011;44310;48.106;12.008;2022-12-18T06:20:32;5.80;;;4.60;;
58518;SDS011;44310;48.106;12.008;2022-12-18T06:23:00;9.63;;;4.95;;
58518;SDS011;44310;48.106;12.008;2022-12-18T06:25:27;7.70;;;5.03;;
58518;SDS011;44310;48.106;12.008;2022-12-18T06:27:54;20.52;;;6.88;;
58518;SDS011;44310;48.106;12.008;2022-12-18T06:30:21;15.47;;;6.00;;
58518;SDS011;44310;48.106;12.008;2022-12-18T06:32:49;8.32;;;5.30;;
58518;SDS011;44310;48.106;12.008;2022-12-18T06:35:22;11.18;;;5.47;;
58518;SDS011;44310;48.106;12.008;2022-12-18T06:37:52;8.10;;;4.40;;
58518;SDS011;44310;48.106;12.008;2022-12-18T06:40:19;7.50;;;4.85;;
58518;SDS011;44310;48.106;12.008;2022-12-18T06:42:47;10.15;;;5.20;;
58518;SDS011;44310;48.106;12.008;2022-12-18T06:45:14;12.30;;;6.07;;
58518;SDS011;44310;48.106;12.008;2022-12-18T06:47:41;9.13;;;4.85;;
58518;SDS011;44310;48.106;12.008;2022-12-18T06:50:08;17.95;;;5.78;;
58518;SDS011;44310;48.106;12.008;2022-12-18T06:52:35;17.73;;;6.47;;
58518;SDS011;44310;48.106;12.008;2022-12-18T06:55:03;11.52;;;5.85;;
58518;SDS011;44310;48.106;12.008;2022-12-18T06:57:31;15.40;;;5.63;;
58518;SDS011;44310;48.106;12.008;2022-12-18T06:59:58;20.48;;;6.75;;
58518;SDS011;44310;48.106;12.008;2022-12-18T07:02:25;21.55;;;7.07;;
58518;SDS011;44310;48.106;12.008;2022-12-18T07:04:52;19.73;;;6.80;;
58518;SDS011;44310;48.106;12.008;2022-12-18T07:07:19;14.43;;;5.63;;
58518;SDS011;44310;48.106;12.008;2022-12-18T07:09:46;13.90;;;5.45;;
58518;SDS011;44310;48.106;12.008;2022-12-18T07:12:13;10.52;;;5.25;;
58518;SDS011;44310;48.106;12.008;2022-12-18T07:14:40;7.97;;;5.00;;
58518;SDS011;44310;48.106;12.008;2022-12-18T07:17:07;10.82;;;5.28;;
58518;SDS011;44310;48.106;12.008;2022-12-18T07:19:35;10.63;;;4.90;;
58518;SDS011;44310;48.106;12.008;2022-12-18T07:22:02;11.50;;;4.80;;
58518;SDS011;44310;48.106;12.008;2022-12-18T07:24:30;10.75;;;5.00;;
58518;SDS011;44310;48.106;12.008;2022-12-18T07:26:58;8.73;;;4.75;;
58518;SDS011;44310;48.106;12.008;2022-12-18T07:29:25;9.80;;;4.47;;
58518;SDS011;44310;48.106;12.008;2022-12-18T07:31:52;9.88;;;4.78;;
58518;SDS011;44310;48.106;12.008;2022-12-18T07:34:20;12.63;;;5.07;;
58518;SDS011;44310;48.106;12.008;2022-12-18T07:36:47;18.00;;;6.90;;
58518;SDS011;44310;48.106;12.008;2022-12-18T07:39:14;25.42;;;7.32;;
58518;SDS011;44310;48.106;12.008;2022-12-18T07:41:41;17.42;;;5.88;;
58518;SDS011;44310;48.106;12.008;2022-12-18T07:44:13;18.73;;;6.43;;
58518;SDS011;44310;48.106;12.008;2022-12-18T07:46:40;20.98;;;6.55;;
58518;SDS011;44310;48.106;12.008;2022-12-18T07:49:07;16.13;;;6.28;;
58518;SDS011;44310;48.106;12.008;2022-12-18T07:51:34;17.85;;;5.90;;
58518;SDS011;44310;48.106;12.008;2022-12-18T07:54:01;18.27;;;5.90;;
58518;SDS011;44310;48.106;12.008;2022-12-18T07:56:28;18.25;;;6.43;;
58518;SDS011;44310;48.106;12.008;2022-12-18T07:58:57;14.25;;;5.63;;
58518;SDS011;44310;48.106;12.008;2022-12-18T08:01:25;13.57;;;5.30;;
58518;SDS011;44310;48.106;12.008;2022-12-18T08:03:53;11.10;;;4.88;;
58518;SDS011;44310;48.106;12.008;2022-12-18T08:06:20;8.25;;;4.38;;
58518;SDS011;44310;48.106;12.008;2022-12-18T08:08:51;10.33;;;4.67;;
58518;SDS011;44310;48.106;12.008;2022-12-18T08:11:22;10.35;;;4.80;;
58518;SDS011;44310;48.106;12.008;2022-12-18T08:13:52;10.77;;;4.70;;
58518;SDS011;44310;48.106;12.008;2022-12-18T08:16:19;11.90;;;4.68;;
58518;SDS011;44310;48.106;12.008;2022-12-18T08:18:47;11.77;;;5.00;;
58518;SDS011;44310;48.106;12.008;2022-12-18T08:21:19;33.50;;;8.90;;
58518;SDS011;44310;48.106;12.008;2022-12-18T08:23:52;18.33;;;6.75;;
58518;SDS011;44310;48.106;12.008;2022-12-18T08:26:20;21.67;;;7.55;;
58518;SDS011;44310;48.106;12.008;2022-12-18T08:28:48;42.05;;;11.55;;
58518;SDS011;44310;48.106;12.008;2022-12-18T08:31:17;37.08;;;10.93;;
58518;SDS011;44310;48.106;12.008;2022-12-18T08:33:45;18.48;;;7.82;;
58518;SDS011;44310;48.106;12.008;2022-12-18T08:36:15;19.45;;;7.85;;
58518;SDS011;44310;48.106;12.008;2022-12-18T08:38:43;13.82;;;6.85;;
58518;SDS011;44310;48.106;12.008;2022-12-18T08:41:11;13.95;;;7.00;;
58518;SDS011;44310;48.106;12.008;2022-12-18T08:43:39;16.15;;;7.03;;
58518;SDS011;44310;48.106;12.008;2022-12-18T08:46:26;15.18;;;7.28;;
58518;SDS011;44310;48.106;12.008;2022-12-18T08:48:57;9.90;;;6.28;;
58518;SDS011;44310;48.106;12.008;2022-12-18T08:51:24;13.55;;;6.53;;
58518;SDS011;44310;48.106;12.008;2022-12-18T08:53:52;13.33;;;7.10;;
58518;SDS011;44310;48.106;12.008;2022-12-18T08:56:19;10.27;;;5.85;;
58518;SDS011;44310;48.106;12.008;2022-12-18T08:58:46;26.27;;;7.80;;
58518;SDS011;44310;48.106;12.008;2022-12-18T09:01:13;13.75;;;7.10;;
58518;SDS011;44310;48.106;12.008;2022-12-18T09:03:40;14.15;;;6.93;;
58518;SDS011;44310;48.106;12.008;2022-12-18T09:06:08;15.00;;;6.97;;
58518;SDS011;44310;48.106;12.008;2022-12-18T09:08:35;15.38;;;6.85;;
58518;SDS011;44310;48.106;12.008;2022-12-18T09:11:10;15.93;;;6.60;;
58518;SDS011;44310;48.106;12.008;2022-12-18T09:13:53;17.67;;;7.18;;
58518;SDS011;44310;48.106;12.008;2022-12-18T09:16:22;14.70;;;6.45;;
58518;SDS011;44310;48.106;12.008;2022-12-18T09:18:57;11.70;;;6.15;;
58518;SDS011;44310;48.106;12.008;2022-12-18T09:21:29;18.63;;;6.78;;
58518;SDS011;44310;48.106;12.008;2022-12-18T09:24:02;12.50;;;6.57;;
58518;SDS011;44310;48.106;12.008;2022-12-18T09:26:30;13.00;;;5.97;;
58518;SDS011;44310;48.106;12.008;2022-12-18T09:28:57;11.85;;;6.03;;
58518;SDS011;44310;48.106;12.008;2022-12-18T09:31:24;10.80;;;5.80;;
58518;SDS011;44310;48.106;12.008;2022-12-18T09:33:52;11.75;;;5.90;;
58518;SDS011;44310;48.106;12.008;2022-12-18T09:36:20;12.30;;;5.97;;
58518;SDS011;44310;48.106;12.008;2022-12-18T09:38:47;11.53;;;6.00;;
58518;SDS011;44310;48.106;12.008;2022-12-18T09:41:29;12.37;;;5.77;;
58518;SDS011;44310;48.106;12.008;2022-12-18T09:44:22;12.73;;;6.10;;
58518;SDS011;44310;48.106;12.008;2022-12-18T09:49:43;13.35;;;6.30;;
58518;SDS011;44310;48.106;12.008;2022-12-18T09:55:00;15.83;;;6.50;;
58518;SDS011;44310;48.106;12.008;2022-12-18T09:57:39;16.40;;;6.70;;
58518;SDS011;44310;48.106;12.008;2022-12-18T10:00:15;27.10;;;8.57;;
58518;SDS011;44310;48.106;12.008;2022-12-18T10:02:45;20.40;;;7.90;;
58518;SDS011;44310;48.106;12.008;2022-12-18T10:05:15;31.40;;;8.55;;
58518;SDS011;44310;48.106;12.008;2022-12-18T10:07:49;26.90;;;8.40;;
58518;SDS011;44310;48.106;12.008;2022-12-18T10:10:26;33.55;;;9.52;;
58518;SDS011;44310;48.106;12.008;2022-12-18T10:13:07;29.30;;;9.20;;
58518;SDS011;44310;48.106;12.008;2022-12-18T10:15:46;30.07;;;9.07;;
58518;SDS011;44310;48.106;12.008;2022-12-18T10:20:56;26.27;;;7.80;;
58518;SDS011;44310;48.106;12.008;2022-12-18T10:23:37;20.17;;;7.40;;
58518;SDS011;44310;48.106;12.008;2022-12-18T10:26:14;19.93;;;7.60;;
58518;SDS011;44310;48.106;12.008;2022-12-18T10:28:41;19.35;;;6.85;;
58518;SDS011;44310;48.106;12.008;2022-12-18T10:31:17;19.60;;;7.78;;
58518;SDS011;44310;48.106;12.008;2022-12-18T10:33:50;19.27;;;7.00;;
58518;SDS011;44310;48.106;12.008;2022-12-18T10:36:22;18.83;;;7.40;;
58518;SDS011;44310;48.106;12.008;2022-12-18T10:38:51;21.23;;;7.00;;
58518;SDS011;44310;48.106;12.008;2022-12-18T10:43:47;12.87;;;6.00;;
58518;SDS011;44310;48.106;12.008;2022-12-18T10:46:19;17.40;;;6.93;;
58518;SDS011;44310;48.106;12.008;2022-12-18T10:48:49;14.63;;;7.23;;
58518;SDS011;44310;48.106;12.008;2022-12-18T10:51:29;16.40;;;6.50;;
58518;SDS011;44310;48.106;12.008;2022-12-18T10:54:06;18.58;;;7.15;;
58518;SDS011;44310;48.106;12.008;2022-12-18T10:56:42;28.25;;;8.55;;
58518;SDS011;44310;48.106;12.008;2022-12-18T10:59:13;20.50;;;7.47;;
58518;SDS011;44310;48.106;12.008;2022-12-18T11:01:52;18.00;;;7.53;;
58518;SDS011;44310;48.106;12.008;2022-12-18T11:04:28;22.75;;;7.57;;
58518;SDS011;44310;48.106;12.008;2022-12-18T11:07:07;16.27;;;6.70;;
58518;SDS011;44310;48.106;12.008;2022-12-18T11:09:35;20.52;;;7.35;;
58518;SDS011;44310;48.106;12.008;2022-12-18T11:12:04;21.37;;;7.17;;
58518;SDS011;44310;48.106;12.008;2022-12-18T11:14:47;16.42;;;6.95;;
58518;SDS011;44310;48.106;12.008;2022-12-18T11:17:20;20.55;;;6.88;;
58518;SDS011;44310;48.106;12.008;2022-12-18T11:19:57;18.05;;;6.65;;
58518;SDS011;44310;48.106;12.008;2022-12-18T11:22:27;13.20;;;6.30;;
58518;SDS011;44310;48.106;12.008;2022-12-18T11:25:29;15.73;;;6.00;;
58518;SDS011;44310;48.106;12.008;2022-12-18T11:28:02;13.57;;;6.38;;
58518;SDS011;44310;48.106;12.008;2022-12-18T11:30:32;13.63;;;6.65;;
58518;SDS011;44310;48.106;12.008;2022-12-18T11:35:49;14.30;;;6.18;;
58518;SDS011;44310;48.106;12.008;2022-12-18T11:38:23;16.38;;;6.50;;
58518;SDS011;44310;48.106;12.008;2022-12-18T11:40:59;23.20;;;7.53;;
58518;SDS011;44310;48.106;12.008;2022-12-18T11:43:37;24.42;;;8.27;;
58518;SDS011;44310;48.106;12.008;2022-12-18T11:46:12;33.47;;;9.20;;
58518;SDS011;44310;48.106;12.008;2022-12-18T11:48:48;115.68;;;25.42;;
58518;SDS011;44310;48.106;12.008;2022-12-18T11:51:37;62.42;;;16.80;;
58518;SDS011;44310;48.106;12.008;2022-12-18T11:54:11;69.07;;;16.30;;
58518;SDS011;44310;48.106;12.008;2022-12-18T11:57:03;79.22;;;18.08;;
58518;SDS011;44310;48.106;12.008;2022-12-18T11:59:52;64.10;;;16.95;;
58518;SDS011;44310;48.106;12.008;2022-12-18T12:02:38;69.53;;;16.70;;
58518;SDS011;44310;48.106;12.008;2022-12-18T12:08:00;69.30;;;16.52;;
58518;SDS011;44310;48.106;12.008;2022-12-18T12:19:02;50.30;;;13.63;;
58518;SDS011;44310;48.106;12.008;2022-12-18T12:21:43;38.78;;;12.07;;
58518;SDS011;44310;48.106;12.008;2022-12-18T12:38:35;17.52;;;8.40;;
58518;SDS011;44310;48.106;12.008;2022-12-18T12:41:14;45.88;;;14.07;;
58518;SDS011;44310;48.106;12.008;2022-12-18T12:44:16;26.67;;;10.50;;
58518;SDS011;44310;48.106;12.008;2022-12-18T12:46:49;37.83;;;11.32;;
58518;SDS011;44310;48.106;12.008;2022-12-18T12:49:21;28.27;;;10.77;;
58518;SDS011;44310;48.106;12.008;2022-12-18T12:54:30;19.42;;;9.07;;
58518;SDS011;44310;48.106;12.008;2022-12-18T12:57:01;14.35;;;7.20;;
58518;SDS011;44310;48.106;12.008;2022-12-18T12:59:47;13.07;;;6.90;;
58518;SDS011;44310;48.106;12.008;2022-12-18T13:02:28;15.88;;;7.70;;
58518;SDS011;44310;48.106;12.008;2022-12-18T13:05:01;12.93;;;7.32;;
58518;SDS011;44310;48.106;12.008;2022-12-18T13:15:23;24.75;;;10.23;;
58518;SDS011;44310;48.106;12.008;2022-12-18T13:18:35;17.07;;;8.83;;
58518;SDS011;44310;48.106;12.008;2022-12-18T13:21:10;29.23;;;10.75;;
58518;SDS011;44310;48.106;12.008;2022-12-18T13:23:45;49.87;;;14.00;;
58518;SDS011;44310;48.106;12.008;2022-12-18T13:36:54;6.35;;;5.85;;
58518;SDS011;44310;48.106;12.008;2022-12-18T13:39:43;11.77;;;6.50;;
58518;SDS011;44310;48.106;12.008;2022-12-18T13:44:57;25.55;;;10.23;;
58518;SDS011;44310;48.106;12.008;2022-12-18T13:47:35;75.65;;;17.85;;
58518;SDS011;44310;48.106;12.008;2022-12-18T13:50:23;135.80;;;28.38;;
58518;SDS011;44310;48.106;12.008;2022-12-18T13:52:58;102.63;;;24.45;;
58518;SDS011;44310;48.106;12.008;2022-12-18T13:55:25;137.75;;;26.60;;
58518;SDS011;44310;48.106;12.008;2022-12-18T13:58:03;92.00;;;20.55;;
58518;SDS011;44310;48.106;12.008;2022-12-18T14:00:31;112.22;;;25.00;;
58518;SDS011;44310;48.106;12.008;2022-12-18T14:02:59;66.32;;;16.15;;
58518;SDS011;44310;48.106;12.008;2022-12-18T14:05:29;127.35;;;25.65;;
58518;SDS011;44310;48.106;12.008;2022-12-18T14:08:03;102.25;;;23.02;;
58518;SDS011;44310;48.106;12.008;2022-12-18T14:10:34;90.93;;;20.30;;
58518;SDS011;44310;48.106;12.008;2022-12-18T14:13:23;85.95;;;20.23;;
58518;SDS011;44310;48.106;12.008;2022-12-18T14:15:55;50.15;;;14.02;;
58518;SDS011;44310;48.106;12.008;2022-12-18T14:18:38;75.57;;;16.40;;
58518;SDS011;44310;48.106;12.008;2022-12-18T14:21:23;70.20;;;16.15;;
58518;SDS011;44310;48.106;12.008;2022-12-18T14:26:46;53.42;;;13.75;;
58518;SDS011;44310;48.106;12.008;2022-12-18T14:29:29;45.22;;;12.20;;
58518;SDS011;44310;48.106;12.008;2022-12-18T14:34:46;53.60;;;13.85;;
58518;SDS011;44310;48.106;12.008;2022-12-18T14:37:22;54.35;;;13.20;;
58518;SDS011;44310;48.106;12.008;2022-12-18T14:39:54;41.97;;;12.40;;
58518;SDS011;44310;48.106;12.008;2022-12-18T14:42:37;42.97;;;12.10;;
58518;SDS011;44310;48.106;12.008;2022-12-18T14:48:23;37.22;;;11.27;;
58518;SDS011;44310;48.106;12.008;2022-12-18T14:53:38;33.83;;;9.75;;
58518;SDS011;44310;48.106;12.008;2022-12-18T14:56:17;30.23;;;10.40;;
58518;SDS011;44310;48.106;12.008;2022-12-18T14:58:56;26.90;;;9.95;;
58518;SDS011;44310;48.106;12.008;2022-12-18T15:01:34;29.55;;;9.63;;
58518;SDS011;44310;48.106;12.008;2022-12-18T15:04:04;28.42;;;9.98;;
58518;SDS011;44310;48.106;12.008;2022-12-18T15:06:48;28.50;;;9.73;;
58518;SDS011;44310;48.106;12.008;2022-12-18T15:09:31;28.42;;;9.68;;
58518;SDS011;44310;48.106;12.008;2022-12-18T15:11:59;29.83;;;10.10;;
58518;SDS011;44310;48.106;12.008;2022-12-18T15:14:34;23.95;;;9.30;;
58518;SDS011;44310;48.106;12.008;2022-12-18T15:17:14;33.37;;;9.83;;
58518;SDS011;44310;48.106;12.008;2022-12-18T15:19:46;33.67;;;10.02;;
58518;SDS011;44310;48.106;12.008;2022-12-18T15:22:17;25.17;;;8.63;;
58518;SDS011;44310;48.106;12.008;2022-12-18T15:24:47;29.13;;;9.60;;
58518;SDS011;44310;48.106;12.008;2022-12-18T15:32:27;29.10;;;9.25;;
58518;SDS011;44310;48.106;12.008;2022-12-18T15:37:42;24.35;;;8.90;;
58518;SDS011;44310;48.106;12.008;2022-12-18T15:40:14;23.02;;;9.07;;
58518;SDS011;44310;48.106;12.008;2022-12-18T15:42:43;28.65;;;8.57;;
58518;SDS011;44310;48.106;12.008;2022-12-18T15:45:29;25.20;;;8.60;;
58518;SDS011;44310;48.106;12.008;2022-12-18T15:47:56;19.63;;;8.07;;
58518;SDS011;44310;48.106;12.008;2022-12-18T15:50:23;19.27;;;7.85;;
58518;SDS011;44310;48.106;12.008;2022-12-18T15:52:53;27.37;;;7.80;;
58518;SDS011;44310;48.106;12.008;2022-12-18T15:55:23;18.35;;;7.40;;
58518;SDS011;44310;48.106;12.008;2022-12-18T15:58:09;17.33;;;7.13;;
58518;SDS011;44310;48.106;12.008;2022-12-18T16:00:40;19.25;;;7.68;;
58518;SDS011;44310;48.106;12.008;2022-12-18T16:03:08;14.65;;;6.78;;
58518;SDS011;44310;48.106;12.008;2022-12-18T16:05:36;15.45;;;7.47;;
58518;SDS011;44310;48.106;12.008;2022-12-18T16:08:03;12.77;;;6.90;;
58518;SDS011;44310;48.106;12.008;2022-12-18T16:10:30;12.17;;;6.63;;
58518;SDS011;44310;48.106;12.008;2022-12-18T16:12:57;15.88;;;6.82;;
58518;SDS011;44310;48.106;12.008;2022-12-18T16:15:24;19.15;;;7.25;;
58518;SDS011;44310;48.106;12.008;2022-12-18T16:17:52;18.75;;;7.10;;
58518;SDS011;44310;48.106;12.008;2022-12-18T16:20:20;19.15;;;6.80;;
58518;SDS011;44310;48.106;12.008;2022-12-18T16:22:48;19.48;;;7.00;;
58518;SDS011;44310;48.106;12.008;2022-12-18T16:25:17;13.95;;;7.50;;
58518;SDS011;44310;48.106;12.008;2022-12-18T16:27:53;15.35;;;7.03;;
58518;SDS011;44310;48.106;12.008;2022-12-18T16:30:22;17.07;;;6.80;;
58518;SDS011;44310;48.106;12.008;2022-12-18T16:32:54;14.40;;;6.70;;
58518;SDS011;44310;48.106;12.008;2022-12-18T16:35:21;12.77;;;7.18;;